Time;durP1;ratioP1;P1;durP2;ratioP2;P2;SDS_P1;SDS_P2;PMS_P1;PMS_P2;Temp;Humidity;BMP_temperature;BMP_pressure;BME280_temperature;BME280_humidity;BME280_pressure;Samples;Min_cycle;Max_cycle;Signal;HPM_P1;HPM_P2
2022/05/15 00:01:19;;;;;;;4.37;3.97;;;;;;;13.03;100.00;99655.41;4823082;29;20237;-77
2022/05/15 00:03:47;;;;;;;4.37;3.97;;;;;;;12.93;100.00;99655.97;4822563;29;20896;-77
2022/05/15 00:06:14;;;;;;;4.70;3.80;;;;;;;12.86;100.00;99660.69;4823094;29;20197;-77
2022/05/15 00:08:41;;;;;;;4.97;4.10;;;;;;;12.83;100.00;99650.38;4822530;29;20219;-77
2022/05/15 00:11:09;;;;;;;4.97;4.47;;;;;;;12.80;100.00;99657.03;4822983;29;20278;-77
2022/05/15 00:13:36;;;;;;;4.77;4.30;;;;;;;12.63;100.00;99655.28;4821986;29;20220;-77
2022/05/15 00:16:04;;;;;;;6.03;3.90;;;;;;;12.50;100.00;99652.81;4822950;29;20204;-77
2022/05/15 00:18:31;;;;;;;4.80;4.40;;;;;;;12.43;100.00;99657.47;4822921;29;20203;-79
2022/05/15 00:20:58;;;;;;;4.83;4.30;;;;;;;12.37;100.00;99648.44;4822845;29;20303;-77
2022/05/15 00:23:25;;;;;;;4.30;3.90;;;;;;;12.36;100.00;99652.22;4822519;29;20774;-77
2022/05/15 00:25:52;;;;;;;4.67;4.27;;;;;;;12.27;100.00;99656.28;4806466;29;20219;-77
2022/05/15 00:28:19;;;;;;;4.37;3.97;;;;;;;12.21;100.00;99666.06;4822843;29;20194;-76
2022/05/15 00:30:46;;;;;;;6.17;4.33;;;;;;;12.12;100.00;99656.69;4822526;29;20201;-76
2022/05/15 00:33:13;;;;;;;4.43;4.03;;;;;;;12.12;100.00;99672.81;4822738;29;20187;-76
2022/05/15 00:35:41;;;;;;;6.40;3.83;;;;;;;12.05;100.00;99669.38;4806738;29;20231;-78
2022/05/15 00:38:09;;;;;;;4.90;4.03;;;;;;;12.04;100.00;99672.31;4822412;29;20733;-77
2022/05/15 00:40:38;;;;;;;4.70;4.13;;;;;;;11.97;100.00;99666.19;4805652;29;20222;-76
2022/05/15 00:43:10;;;;;;;4.53;3.70;;;;;;;11.96;100.00;99669.94;4822648;29;20250;-76
2022/05/15 00:45:37;;;;;;;5.53;4.00;;;;;;;11.89;100.00;99670.03;4805990;29;20199;-77
2022/05/15 00:48:04;;;;;;;4.30;3.90;;;;;;;11.80;100.00;99671.41;4822292;29;20256;-76
2022/05/15 00:50:34;;;;;;;6.23;4.57;;;;;;;11.71;100.00;99670.03;4821903;29;20203;-77
2022/05/15 00:53:06;;;;;;;7.43;4.30;;;;;;;11.65;100.00;99665.56;4806310;29;20196;-76
2022/05/15 00:55:40;;;;;;;6.00;4.33;;;;;;;11.61;100.00;99665.19;4822224;29;20206;-77
2022/05/15 00:58:15;;;;;;;4.97;4.10;;;;;;;11.52;100.00;99663.88;4822377;29;20187;-77
2022/05/15 01:00:42;;;;;;;4.40;4.00;;;;;;;11.53;100.00;99670.84;4790502;29;20305;-77
2022/05/15 01:03:17;;;;;;;4.50;3.90;;;;;;;11.52;100.00;99661.19;4822059;29;20198;-77
2022/05/15 01:05:47;;;;;;;5.63;3.80;;;;;;;11.48;100.00;99657.28;4805965;29;20190;-77
2022/05/15 01:08:21;;;;;;;5.93;3.80;;;;;;;11.41;100.00;99657.38;4805744;29;20231;-76
2022/05/15 01:10:52;;;;;;;4.40;3.97;;;;;;;11.34;100.00;99658.47;4790679;29;20233;-77
2022/05/15 01:13:28;;;;;;;4.13;3.73;;;;;;;11.31;100.00;99662.44;4805516;29;20205;-78
2022/05/15 01:15:55;;;;;;;5.10;3.70;;;;;;;11.24;100.00;99650.16;4805255;29;20226;-77
2022/05/15 01:18:24;;;;;;;5.63;3.87;;;;;;;11.25;100.00;99646.41;4821867;29;20194;-77
2022/05/15 01:20:59;;;;;;;4.57;3.97;;;;;;;11.24;100.00;99653.66;4805645;29;20238;-77
2022/05/15 01:23:29;;;;;;;4.40;4.00;;;;;;;11.23;100.00;99660.06;4819845;29;20297;-77
2022/05/15 01:25:58;;;;;;;5.20;4.10;;;;;;;11.24;100.00;99659.03;4804695;29;20733;-77
2022/05/15 01:28:27;;;;;;;4.20;3.80;;;;;;;11.18;100.00;99659.91;4805059;29;20274;-77
2022/05/15 01:30:57;;;;;;;4.93;4.27;;;;;;;11.17;100.00;99666.31;4805617;29;20201;-77
2022/05/15 01:33:24;;;;;;;5.77;4.00;;;;;;;11.14;100.00;99661.41;4805457;29;20297;-77
2022/05/15 01:35:51;;;;;;;5.43;3.80;;;;;;;11.17;100.00;99663.63;4805142;29;20274;-77
2022/05/15 01:38:18;;;;;;;4.07;3.47;;;;;;;11.04;100.00;99666.44;4805527;29;20194;-77
2022/05/15 01:40:47;;;;;;;4.27;3.87;;;;;;;10.97;100.00;99665.69;4805228;29;20197;-77
2022/05/15 01:43:16;;;;;;;5.30;3.53;;;;;;;10.88;100.00;99669.69;4790307;29;20198;-76
2022/05/15 01:45:43;;;;;;;4.00;3.60;;;;;;;10.87;100.00;99679.59;4821216;29;20202;-77
2022/05/15 01:48:11;;;;;;;4.70;3.27;;;;;;;10.80;100.00;99678.00;4805203;29;20663;-77
2022/05/15 01:50:39;;;;;;;5.13;3.60;;;;;;;10.78;100.00;99680.13;4804628;29;20234;-77
2022/05/15 01:53:07;;;;;;;3.67;3.30;;;;;;;10.76;100.00;99677.63;4804813;29;20225;-77
2022/05/15 01:55:33;;;;;;;4.50;3.80;;;;;;;10.76;100.00;99664.25;4804293;29;20655;-77
2022/05/15 01:58:00;;;;;;;3.53;3.23;;;;;;;10.71;100.00;99672.13;4821596;29;20285;-77
2022/05/15 02:00:27;;;;;;;3.80;3.50;;;;;;;10.67;100.00;99678.13;4805038;29;20201;-76
2022/05/15 02:02:54;;;;;;;4.57;4.17;;;;;;;10.66;100.00;99668.44;4804684;29;20208;-77
2022/05/15 02:05:22;;;;;;;3.80;3.50;;;;;;;10.61;100.00;99674.47;4804794;29;20205;-77
2022/05/15 02:07:49;;;;;;;3.47;3.17;;;;;;;10.58;100.00;99675.72;4804841;29;20205;-77
2022/05/15 02:10:17;;;;;;;5.07;3.33;;;;;;;10.56;100.00;99667.09;4821009;29;20276;-77
2022/05/15 02:12:46;;;;;;;4.67;3.33;;;;;;;10.57;100.00;99671.41;4820206;29;20258;-77
2022/05/15 02:15:13;;;;;;;4.63;3.30;;;;;;;10.53;100.00;99667.53;4804385;29;20304;-77
2022/05/15 02:17:40;;;;;;;3.97;3.53;;;;;;;10.48;100.00;99675.41;4789771;29;20247;-77
2022/05/15 02:20:10;;;;;;;4.07;3.67;;;;;;;10.43;100.00;99669.03;4819785;29;20225;-77
2022/05/15 02:22:38;;;;;;;4.13;3.53;;;;;;;10.41;100.00;99669.25;4818838;29;20210;-77
2022/05/15 02:25:07;;;;;;;4.00;3.60;;;;;;;10.39;100.00;99670.53;4802791;29;20651;-76
2022/05/15 02:27:39;;;;;;;3.57;3.27;;;;;;;10.38;100.00;99668.88;4771815;29;20252;-77
2022/05/15 02:30:08;;;;;;;3.80;3.50;;;;;;;10.37;100.00;99664.56;4785934;29;20214;-77
2022/05/15 02:32:35;;;;;;;3.77;3.47;;;;;;;10.34;100.00;99665.81;4786453;29;20237;-77
2022/05/15 02:35:02;;;;;;;3.80;3.43;;;;;;;10.30;100.00;99666.47;4786178;29;20242;-77
2022/05/15 02:37:30;;;;;;;4.83;3.47;;;;;;;10.25;100.00;99669.78;4802393;29;20722;-77
2022/05/15 02:39:57;;;;;;;4.20;3.20;;;;;;;10.23;100.00;99661.16;4802225;29;20614;-77
2022/05/15 02:42:23;;;;;;;3.50;2.97;;;;;;;10.15;100.00;99667.59;4786352;29;20201;-77
2022/05/15 02:44:52;;;;;;;3.47;3.17;;;;;;;10.13;100.00;99664.25;4786176;29;20202;-76
2022/05/15 02:47:19;;;;;;;4.77;3.33;;;;;;;10.08;100.00;99661.41;4802754;29;20209;-77
2022/05/15 02:52:31;;;;;;;3.47;3.10;;;;;;;10.09;100.00;99672.94;4786078;29;20202;-77
2022/05/15 02:54:58;;;;;;;3.90;3.30;;;;;;;10.06;100.00;99682.25;4802008;29;20274;-77
2022/05/15 02:57:25;;;;;;;4.17;2.93;;;;;;;10.03;100.00;99671.94;4801706;29;20218;-77
2022/05/15 02:59:52;;;;;;;3.63;2.97;;;;;;;10.00;100.00;99683.09;4784849;29;20274;-78
2022/05/15 03:02:19;;;;;;;3.50;3.20;;;;;;;9.98;100.00;99679.00;4801840;29;20202;-77
2022/05/15 03:04:47;;;;;;;4.40;3.20;;;;;;;9.99;100.00;99685.97;4801896;29;20229;-77
2022/05/15 03:07:14;;;;;;;3.40;3.10;;;;;;;9.96;100.00;99681.06;4771236;29;20293;-77
2022/05/15 03:09:40;;;;;;;3.20;3.00;;;;;;;9.95;100.00;99682.09;4801916;29;20251;-78
2022/05/15 03:12:07;;;;;;;2.90;2.70;;;;;;;9.93;100.00;99679.63;4786348;29;20202;-77
2022/05/15 03:14:34;;;;;;;3.07;2.83;;;;;;;9.94;100.00;99686.59;4802311;29;20623;-77
2022/05/15 03:17:01;;;;;;;4.23;2.97;;;;;;;9.92;100.00;99679.84;4785954;29;20348;-77
2022/05/15 03:19:28;;;;;;;3.73;2.87;;;;;;;9.92;100.00;99687.88;4785664;29;20615;-77
2022/05/15 03:21:55;;;;;;;3.40;2.93;;;;;;;9.92;100.00;99693.22;4785933;29;20191;-77
2022/05/15 03:24:22;;;;;;;4.03;3.00;;;;;;;9.97;100.00;99696.09;4800410;29;20241;-77
2022/05/15 03:26:48;;;;;;;4.20;2.70;;;;;;;9.99;100.00;99688.66;4820269;29;20193;-77
2022/05/15 03:29:18;;;;;;;3.20;2.90;;;;;;;9.97;100.00;99694.22;4820464;29;20631;-77
2022/05/15 03:31:46;;;;;;;3.63;2.93;;;;;;;9.97;100.00;99691.56;4789105;29;20237;-77
2022/05/15 03:34:16;;;;;;;3.63;3.10;;;;;;;9.98;100.00;99695.06;4804241;29;20223;-78
2022/05/15 03:36:44;;;;;;;3.27;2.87;;;;;;;9.98;100.00;99698.56;4820458;29;20826;-77
2022/05/15 03:39:11;;;;;;;4.40;2.80;;;;;;;10.01;100.00;99703.47;4820175;29;20182;-79
2022/05/15 03:41:38;;;;;;;3.53;2.93;;;;;;;10.05;100.00;99698.50;4803711;29;20288;-77
2022/05/15 03:44:06;;;;;;;3.23;2.93;;;;;;;10.08;100.00;99703.41;4803841;29;20274;-77
2022/05/15 03:46:34;;;;;;;5.33;3.00;;;;;;;10.13;100.00;99701.75;4788734;29;20194;-78
2022/05/15 03:49:01;;;;;;;2.57;2.37;;;;;;;10.24;100.00;99704.81;4790810;29;20229;-77
2022/05/15 03:51:28;;;;;;;2.90;2.70;;;;;;;10.30;100.00;99709.31;4823469;29;20306;-78
2022/05/15 03:53:55;;;;;;;3.27;2.77;;;;;;;10.54;100.00;99714.69;4823395;29;20185;-78
2022/05/15 03:56:49;;;;;;;3.77;2.80;;;;;;;11.62;100.00;99751.91;4806796;29;20602;-77
2022/05/15 03:59:10;;;;;;;3.33;2.70;;;;;;;13.06;100.00;99806.41;4807258;29;20201;-78
2022/05/15 04:01:38;;;;;;;3.23;2.90;;;;;;;14.16;100.00;99819.94;4822564;29;20229;-77
2022/05/15 04:04:04;;;;;;;3.83;2.73;;;;;;;15.15;100.00;99859.09;4823448;29;20190;-77
2022/05/15 04:06:32;;;;;;;2.50;2.30;;;;;;;15.86;100.00;99833.22;4823069;29;20199;-78
2022/05/15 04:08:59;;;;;;;3.50;2.53;;;;;;;15.78;100.00;99734.50;4807026;29;20221;-78
2022/05/15 04:11:26;;;;;;;2.77;2.50;;;;;;;15.09;100.00;99716.22;4822931;29;20228;-78
2022/05/15 04:13:53;;;;;;;3.50;2.67;;;;;;;14.52;100.00;99722.56;4823701;29;20246;-78
2022/05/15 04:16:19;;;;;;;2.57;2.37;;;;;;;14.11;100.00;99726.38;4822460;29;20282;-77
2022/05/15 04:18:46;;;;;;;3.60;2.87;;;;;;;13.83;100.00;99720.94;4822916;29;20201;-77
2022/05/15 04:21:13;;;;;;;2.80;2.60;;;;;;;13.61;100.00;99720.78;4806832;29;20253;-78
2022/05/15 04:23:40;;;;;;;11.77;8.93;;;;;;;13.52;100.00;99724.88;4806421;29;20291;-78
2022/05/15 04:26:07;;;;;;;19.50;14.60;;;;;;;13.45;100.00;99726.88;4806903;29;20256;-79
2022/05/15 04:28:35;;;;;;;5.83;4.80;;;;;;;13.41;100.00;99724.88;4806443;29;20203;-77
2022/05/15 04:31:04;;;;;;;4.13;3.63;;;;;;;13.44;100.00;99732.47;4806671;29;20195;-78
2022/05/15 04:33:31;;;;;;;3.67;3.20;;;;;;;13.55;100.00;99732.47;4822788;29;20195;-78
2022/05/15 04:35:58;;;;;;;3.03;2.80;;;;;;;13.67;100.00;99730.56;4822911;29;20243;-78
2022/05/15 04:38:25;;;;;;;4.30;2.80;;;;;;;13.78;100.00;99728.09;4823098;29;20202;-78
2022/05/15 04:40:52;;;;;;;3.63;2.60;;;;;;;13.94;100.00;99730.88;4792121;29;20291;-79
2022/05/15 04:43:19;;;;;;;2.87;2.60;;;;;;;14.09;100.00;99741.16;4822757;29;20709;-77
2022/05/15 04:45:46;;;;;;;2.67;2.47;;;;;;;14.25;100.00;99742.25;4822145;29;20228;-77
2022/05/15 04:48:14;;;;;;;2.63;2.43;;;;;;;14.41;100.00;99738.81;4806699;29;20192;-78
2022/05/15 04:50:41;;;;;;;2.50;2.30;;;;;;;14.58;100.00;99745.06;4822552;29;20280;-78
2022/05/15 04:53:08;;;;;;;3.70;2.70;;;;;;;14.71;100.00;99744.75;4822302;29;20277;-78
2022/05/15 04:55:37;;;;;;;2.87;2.57;;;;;;;14.87;100.00;99749.34;4822014;29;20209;-78
2022/05/15 04:58:04;;;;;;;3.67;2.53;;;;;;;14.97;100.00;99741.41;4822454;29;20284;-78
2022/05/15 05:00:31;;;;;;;2.90;2.60;;;;;;;15.17;100.00;99748.19;4821763;29;20254;-77
2022/05/15 05:02:58;;;;;;;3.67;2.47;;;;;;;15.33;100.00;99745.47;4822172;29;20201;-78
2022/05/15 05:05:24;;;;;;;2.60;2.40;;;;;;;15.52;100.00;99739.81;4822202;29;20673;-78
2022/05/15 05:07:51;;;;;;;3.17;2.20;;;;;;;15.66;100.00;99747.31;4822234;29;20278;-78
2022/05/15 05:10:18;;;;;;;2.47;2.27;;;;;;;15.83;100.00;99750.78;4822091;29;20276;-78
2022/05/15 05:12:46;;;;;;;2.73;2.30;;;;;;;16.00;100.00;99741.81;4806396;29;20270;-78
2022/05/15 05:15:13;;;;;;;2.30;2.10;;;;;;;16.18;100.00;99749.59;4821819;29;20241;-78
2022/05/15 05:17:41;;;;;;;2.53;2.33;;;;;;;16.35;100.00;99746.78;4822176;29;20309;-78
2022/05/15 05:20:10;;;;;;;3.80;2.50;;;;;;;16.52;100.00;99759.13;4821696;29;20704;-79
2022/05/15 05:22:36;;;;;;;3.03;2.60;;;;;;;16.70;100.00;99758.00;4805598;29;20198;-78
2022/05/15 05:25:04;;;;;;;2.70;2.10;;;;;;;16.83;100.00;99752.19;4805557;29;20824;-78
2022/05/15 05:27:30;;;;;;;4.27;2.47;;;;;;;16.98;100.00;99763.09;4805219;29;20254;-77
2022/05/15 05:29:57;;;;;;;2.73;2.40;;;;;;;17.17;100.00;99752.69;4821700;29;20276;-78
2022/05/15 05:32:24;;;;;;;3.90;2.50;;;;;;;17.33;100.00;99765.28;4821190;29;20273;-80
2022/05/15 05:34:51;;;;;;;2.93;2.30;;;;;;;17.48;100.00;99761.88;4821587;29;20190;-78
2022/05/15 05:37:18;;;;;;;2.50;2.30;;;;;;;17.62;100.00;99764.97;4821373;29;20225;-78
2022/05/15 05:39:45;;;;;;;2.43;1.70;;;;;;;17.71;100.00;99769.63;4821121;29;20213;-78
2022/05/15 05:42:12;;;;;;;2.17;1.97;;;;;;;17.85;100.00;99776.22;4805015;29;20222;-77
2022/05/15 05:44:38;;;;;;;3.13;2.40;;;;;;;17.97;100.00;99767.84;4804829;29;20190;-79
2022/05/15 05:47:05;;;;;;;2.80;2.30;;;;;;;18.12;100.00;99773.34;4804879;29;20206;-78
2022/05/15 05:49:32;;;;;;;5.37;2.50;;;;;;;18.25;100.00;99769.31;4820939;29;20220;-78
2022/05/15 05:51:59;;;;;;;3.27;2.13;;;;;;;18.36;100.00;99771.78;4821339;29;20190;-78
2022/05/15 05:54:26;;;;;;;4.10;2.30;;;;;;;18.41;100.00;99771.81;4821292;29;20197;-82
2022/05/15 05:56:53;;;;;;;2.83;2.50;;;;;;;18.51;98.38;99773.75;4805082;29;20241;-78
2022/05/15 05:59:19;;;;;;;2.50;2.30;;;;;;;18.62;96.30;99774.59;4805375;29;20280;-78
2022/05/15 06:01:46;;;;;;;4.47;2.60;;;;;;;18.68;98.68;99778.94;4820715;29;20512;-78
2022/05/15 06:06:58;;;;;;;3.20;2.00;;;;;;;18.94;94.00;99771.66;4821019;29;20257;-78
2022/05/15 06:09:25;;;;;;;4.47;2.73;;;;;;;19.20;94.65;99782.25;4821601;29;20216;-78
2022/05/15 06:11:52;;;;;;;4.73;2.50;;;;;;;19.04;97.92;99786.03;4820648;29;20252;-78
2022/05/15 06:14:19;;;;;;;3.20;2.60;;;;;;;19.25;94.43;99787.69;4821241;29;20214;-78
2022/05/15 06:16:46;;;;;;;4.13;2.73;;;;;;;19.20;95.20;99787.69;4820856;29;20297;-78
2022/05/15 06:19:13;;;;;;;3.53;3.17;;;;;;;19.10;99.57;99787.69;4804670;29;20564;-79
2022/05/15 06:21:40;;;;;;;2.70;2.50;;;;;;;19.21;99.38;99789.31;4821082;29;20600;-78
2022/05/15 06:24:07;;;;;;;4.57;2.70;;;;;;;19.21;100.00;99780.34;4820709;29;20288;-78
2022/05/15 06:26:33;;;;;;;4.30;2.37;;;;;;;19.30;95.88;99779.53;4820417;29;20913;-77
2022/05/15 06:29:00;;;;;;;2.57;2.37;;;;;;;19.48;94.96;99780.09;4820958;29;20225;-79
2022/05/15 06:31:27;;;;;;;4.47;2.70;;;;;;;19.60;94.42;99789.56;4820530;29;20842;-80
2022/05/15 06:33:54;;;;;;;3.47;2.57;;;;;;;19.58;90.12;99785.50;4820953;29;20241;-78
2022/05/15 06:36:20;;;;;;;3.03;2.73;;;;;;;19.41;84.19;99785.75;4821067;29;20238;-78
2022/05/15 06:38:47;;;;;;;3.17;2.70;;;;;;;19.32;80.36;99780.06;4804169;29;20194;-77
2022/05/15 06:41:14;;;;;;;2.97;2.40;;;;;;;19.60;81.23;99786.84;4820334;29;20254;-78
2022/05/15 06:43:41;;;;;;;4.53;3.00;;;;;;;19.91;81.64;99789.50;4820772;29;20228;-79
2022/05/15 06:46:08;;;;;;;4.53;2.87;;;;;;;20.00;81.67;99785.94;4820846;29;20202;-77
2022/05/15 06:48:35;;;;;;;2.70;2.50;;;;;;;20.20;82.07;99790.50;4820484;29;20222;-78
2022/05/15 06:51:03;;;;;;;5.13;2.90;;;;;;;20.27;77.72;99782.00;4803392;29;20870;-79
2022/05/15 06:53:30;;;;;;;4.27;2.60;;;;;;;20.17;75.44;99785.59;4830103;29;20572;-79
2022/05/15 06:58:42;;;;;;;2.97;2.77;;;;;;;20.05;84.84;99795.97;4804024;29;20245;-79
2022/05/15 07:01:09;;;;;;;4.97;2.87;;;;;;;20.19;87.18;99789.66;4834555;29;20194;-79
2022/05/15 07:03:36;;;;;;;3.43;3.10;;;;;;;20.07;86.25;99791.88;4838043;29;20220;-78
2022/05/15 07:06:03;;;;;;;3.20;2.90;;;;;;;20.35;83.47;99793.16;4838486;29;20721;-78
2022/05/15 07:08:30;;;;;;;4.83;2.93;;;;;;;20.43;85.70;99789.03;4832196;29;20256;-78
2022/05/15 07:10:57;;;;;;;2.93;2.53;;;;;;;20.33;83.32;99787.19;4820361;29;20248;-78
2022/05/15 07:13:25;;;;;;;2.93;2.40;;;;;;;20.43;80.22;99780.88;4820598;29;20198;-79
2022/05/15 07:15:52;;;;;;;3.00;2.60;;;;;;;20.17;83.83;99782.88;4819792;29;20207;-80
2022/05/15 07:18:18;;;;;;;3.87;3.00;;;;;;;20.47;91.91;99784.66;4820491;29;20664;-79
2022/05/15 07:20:46;;;;;;;3.40;3.10;;;;;;;20.37;88.56;99785.53;4820163;29;20213;-78
2022/05/15 07:23:14;;;;;;;3.53;2.90;;;;;;;20.13;90.25;99788.06;4821070;29;20222;-79
2022/05/15 07:25:41;;;;;;;4.13;3.10;;;;;;;20.23;88.36;99785.31;4823613;29;20227;-78
2022/05/15 07:28:08;;;;;;;4.17;3.20;;;;;;;20.43;86.49;99780.88;4824014;29;20223;-78
2022/05/15 07:30:34;;;;;;;3.30;3.00;;;;;;;20.37;79.32;99780.09;4823123;29;20512;-78
2022/05/15 07:33:01;;;;;;;4.73;3.27;;;;;;;20.35;84.02;99782.25;4824178;29;20200;-79
2022/05/15 07:35:28;;;;;;;3.17;2.80;;;;;;;20.50;79.00;99776.75;4823654;29;20222;-79
2022/05/15 07:37:55;;;;;;;5.47;3.43;;;;;;;20.39;80.80;99783.31;4823900;29;20255;-78
2022/05/15 07:40:22;;;;;;;4.37;3.20;;;;;;;20.20;74.95;99785.84;4824030;29;20256;-80
2022/05/15 07:42:49;;;;;;;4.07;3.63;;;;;;;20.41;83.50;99783.06;4807721;29;20275;-80
2022/05/15 07:45:16;;;;;;;4.80;3.20;;;;;;;20.36;73.87;99783.91;4823647;29;20797;-79
2022/05/15 07:47:43;;;;;;;4.20;3.60;;;;;;;20.39;74.47;99777.09;4823276;29;20218;-78
2022/05/15 07:50:11;;;;;;;3.20;2.90;;;;;;;20.63;82.90;99780.75;4823351;29;20234;-80
2022/05/15 07:52:38;;;;;;;4.60;3.10;;;;;;;20.99;84.78;99787.59;4806692;29;20195;-78
2022/05/15 07:55:10;;;;;;;5.23;3.17;;;;;;;21.09;82.92;99781.22;4823131;29;20188;-79
2022/05/15 07:57:37;;;;;;;5.70;3.50;;;;;;;21.43;82.42;99787.50;4807037;29;20250;-78
2022/05/15 08:00:06;;;;;;;3.50;3.20;;;;;;;21.48;76.84;99786.66;4823125;29;20222;-78
2022/05/15 08:02:38;;;;;;;3.60;3.23;;;;;;;21.14;73.76;99788.59;4822569;29;20270;-78
2022/05/15 08:08:09;;;;;;;4.43;3.33;;;;;;;21.36;76.28;99783.50;4823148;29;20720;-79
2022/05/15 08:10:38;;;;;;;4.03;3.53;;;;;;;21.38;74.96;99784.00;4806726;29;20844;-78
2022/05/15 08:13:06;;;;;;;4.50;3.50;;;;;;;21.47;79.45;99782.28;4823020;29;20621;-78
2022/05/15 08:15:33;;;;;;;5.50;3.87;;;;;;;21.42;73.94;99783.16;4822699;29;20192;-79
2022/05/15 08:23:33;;;;;;;6.03;3.70;;;;;;;21.24;77.03;99783.06;4822990;29;20195;-78
2022/05/15 08:23:56;;;;;;;4.30;3.90;;;;;;;21.76;68.01;99776.81;4809332;29;20240;-79
2022/05/15 08:26:23;;;;;;;5.17;4.10;;;;;;;21.56;73.07;99782.50;4823356;29;20188;-79
2022/05/15 08:28:50;;;;;;;4.40;4.10;;;;;;;21.63;74.37;99780.25;4822220;29;20222;-78
2022/05/15 08:31:18;;;;;;;7.40;3.80;;;;;;;21.86;73.02;99780.25;4822660;29;20285;-79
2022/05/15 08:33:44;;;;;;;3.97;3.30;;;;;;;22.02;70.43;99775.47;4822144;29;20194;-79
2022/05/15 08:36:12;;;;;;;3.70;3.30;;;;;;;22.09;67.86;99773.19;4822762;29;20310;-79
2022/05/15 08:38:39;;;;;;;5.17;3.33;;;;;;;22.37;71.59;99777.75;4822715;29;20218;-79
2022/05/15 08:41:16;;;;;;;4.37;3.40;;;;;;;22.42;66.26;99782.31;4806511;29;20740;-79
2022/05/15 08:44:05;;;;;;;6.03;3.30;;;;;;;22.61;66.21;99776.88;4822427;29;20713;-78
2022/05/15 08:46:47;;;;;;;3.53;2.90;;;;;;;22.87;60.28;99778.13;4822264;29;20265;-78
2022/05/15 08:49:27;;;;;;;3.07;2.70;;;;;;;22.81;57.34;99780.16;4806917;29;20261;-78
2022/05/15 08:51:56;;;;;;;3.97;3.10;;;;;;;22.93;54.89;99776.16;4806137;29;20225;-79
2022/05/15 08:54:23;;;;;;;4.80;3.00;;;;;;;22.69;57.56;99776.19;4822779;29;20200;-79
2022/05/15 08:56:50;;;;;;;5.10;3.03;;;;;;;22.76;56.60;99769.31;4821814;29;20241;-79
2022/05/15 08:59:26;;;;;;;5.50;2.97;;;;;;;22.98;60.81;99770.59;4806211;29;20281;-79
2022/05/15 09:01:55;;;;;;;4.87;3.40;;;;;;;22.88;62.00;99782.50;4805436;29;20185;-78
2022/05/15 09:04:22;;;;;;;5.07;3.13;;;;;;;22.83;63.02;99774.38;4805634;29;20204;-80
2022/05/15 09:07:08;;;;;;;5.80;3.10;;;;;;;22.86;59.30;99765.63;4822363;29;20266;-79
2022/05/15 09:09:50;;;;;;;4.25;2.97;;;;;;;23.00;61.48;99760.19;4822257;29;20188;-78
2022/05/15 09:12:22;;;;;;;5.03;2.80;;;;;;;23.23;58.25;99778.41;4822287;29;20236;-78
2022/05/15 09:15:18;;;;;;;5.82;2.80;;;;;;;23.47;57.63;99779.06;4821915;29;20204;-79
2022/05/15 09:17:57;;;;;;;5.03;2.95;;;;;;;23.58;53.23;99777.78;4821674;29;20686;-78
2022/05/15 09:20:24;;;;;;;3.13;2.70;;;;;;;23.07;54.49;99777.00;4821942;29;20614;-78
2022/05/15 09:22:57;;;;;;;2.87;2.40;;;;;;;23.08;51.58;99771.25;4821304;29;20282;-78
2022/05/15 09:25:25;;;;;;;4.35;2.38;;;;;;;23.27;46.96;99773.94;4805952;29;20250;-79
2022/05/15 09:28:12;;;;;;;3.70;2.67;;;;;;;23.52;53.21;99783.63;4821736;29;20230;-78
2022/05/15 09:30:44;;;;;;;2.78;2.20;;;;;;;23.50;50.37;99775.75;4805624;29;20225;-78
2022/05/15 09:33:23;;;;;;;5.65;2.60;;;;;;;23.69;48.92;99776.50;4805573;29;20190;-79
2022/05/15 09:35:49;;;;;;;3.80;2.58;;;;;;;23.73;52.15;99771.22;4821416;29;20276;-79
2022/05/15 09:38:29;;;;;;;6.07;2.65;;;;;;;23.95;48.55;99771.31;4805376;29;20654;-78
2022/05/15 09:44:30;;;;;;;4.07;2.33;;;;;;;23.95;50.97;99771.31;4807962;29;20676;-79
2022/05/15 09:47:03;;;;;;;5.30;2.65;;;;;;;24.32;47.07;99773.06;4820952;29;20269;-78
2022/05/15 09:49:33;;;;;;;5.28;2.40;;;;;;;24.48;44.44;99762.59;4805439;29;20225;-79
2022/05/15 09:52:07;;;;;;;5.95;2.35;;;;;;;24.67;44.07;99760.50;4821540;29;20217;-79
2022/05/15 09:54:38;;;;;;;6.35;2.47;;;;;;;24.77;44.54;99753.97;4805104;29;20187;-78
2022/05/15 09:57:19;;;;;;;3.03;2.50;;;;;;;24.61;45.73;99759.00;4821245;29;20205;-79
2022/05/15 09:59:59;;;;;;;5.53;2.15;;;;;;;24.79;43.75;99763.50;4821105;29;20186;-78
2022/05/15 10:02:43;;;;;;;5.15;2.50;;;;;;;24.64;43.50;99765.78;4804712;29;20210;-79
2022/05/15 10:05:21;;;;;;;3.92;2.40;;;;;;;24.14;42.44;99763.00;4821527;29;20197;-79
2022/05/15 10:08:10;;;;;;;3.90;2.00;;;;;;;23.96;45.96;99762.00;4804601;29;20594;-78
2022/05/15 10:11:03;;;;;;;4.05;2.33;;;;;;;23.96;43.31;99756.53;4820907;29;20212;-78
2022/05/15 10:13:38;;;;;;;2.53;2.20;;;;;;;24.49;42.42;99754.06;4817980;29;20266;-78
2022/05/15 10:16:20;;;;;;;4.20;2.50;;;;;;;23.95;44.46;99752.19;4820554;29;20197;-79
2022/05/15 10:18:51;;;;;;;4.60;2.10;;;;;;;24.37;41.91;99747.50;4804538;29;20209;-78
2022/05/15 10:21:18;;;;;;;4.93;2.50;;;;;;;24.39;45.55;99751.56;4804250;29;20251;-78
2022/05/15 10:24:11;;;;;;;5.25;2.35;;;;;;;24.04;42.91;99752.28;4820887;29;20302;-79
2022/05/15 10:26:50;;;;;;;3.67;1.90;;;;;;;24.04;42.40;99747.59;4804399;29;20205;-78
2022/05/15 10:29:54;;;;;;;3.40;2.00;;;;;;;24.27;42.20;99743.03;4820973;29;20662;-78
2022/05/15 10:32:31;;;;;;;5.30;2.00;;;;;;;24.52;41.60;99739.75;4808103;29;20210;-78
2022/05/15 10:34:58;;;;;;;5.10;2.30;;;;;;;24.86;46.24;99741.16;4804569;29;20531;-78
2022/05/15 10:37:52;;;;;;;5.00;2.10;;;;;;;25.16;41.81;99737.69;4820517;29;20301;-78
2022/05/15 10:40:40;;;;;;;6.18;2.42;;;;;;;25.48;43.27;99741.22;4820928;29;20686;-79
2022/05/15 10:43:19;;;;;;;4.10;2.30;;;;;;;24.69;41.35;99736.34;4821125;29;20179;-78
2022/05/15 10:45:58;;;;;;;3.35;2.08;;;;;;;25.03;41.49;99735.00;4820548;29;20208;-79
2022/05/15 10:48:45;;;;;;;4.75;1.95;;;;;;;24.88;41.54;99730.72;4804421;29;20179;-79
2022/05/15 10:51:17;;;;;;;3.45;2.10;;;;;;;25.20;39.87;99729.63;4820382;29;20180;-79
2022/05/15 10:57:22;;;;;;;2.75;2.20;;;;;;;25.31;40.00;99712.63;4820018;29;20241;-78
2022/05/15 10:59:55;;;;;;;3.75;2.40;;;;;;;25.53;40.79;99717.22;4806134;29;20236;-78
2022/05/15 11:02:35;;;;;;;4.00;2.13;;;;;;;25.82;39.28;99711.25;4819984;29;20244;-79
2022/05/15 11:05:28;;;;;;;4.28;2.50;;;;;;;25.95;40.23;99709.50;4820703;29;20242;-78
2022/05/15 11:08:22;;;;;;;4.65;1.85;;;;;;;25.69;38.04;99710.22;4804527;29;20182;-78
2022/05/15 11:11:02;;;;;;;5.18;2.00;;;;;;;25.56;40.52;99702.94;4820401;29;20242;-78
2022/05/15 11:13:56;;;;;;;4.10;2.20;;;;;;;24.99;41.08;99710.97;4804022;29;20275;-79
2022/05/15 11:16:31;;;;;;;2.83;1.75;;;;;;;24.84;41.05;99692.13;4803838;29;20187;-79
2022/05/15 11:19:29;;;;;;;4.38;2.10;;;;;;;25.16;39.97;99693.81;4820346;29;20224;-78
2022/05/15 11:22:01;;;;;;;3.97;2.03;;;;;;;25.22;40.36;99695.31;4820189;29;20269;-78
2022/05/15 11:24:53;;;;;;;2.67;1.90;;;;;;;25.53;40.31;99681.56;4804415;29;20239;-80
2022/05/15 11:27:44;;;;;;;4.10;2.10;;;;;;;25.52;41.60;99687.38;4819858;29;20262;-78
2022/05/15 11:30:27;;;;;;;3.70;2.53;;;;;;;25.55;39.83;99684.84;4804062;29;20280;-78
2022/05/15 11:32:54;;;;;;;4.47;2.20;;;;;;;25.71;39.00;99680.53;4820171;29;20259;-78
2022/05/15 11:35:25;;;;;;;3.78;1.92;;;;;;;25.73;37.76;99681.03;4820394;29;20196;-78
2022/05/15 11:37:56;;;;;;;4.25;2.30;;;;;;;25.83;38.44;99680.75;4819898;29;20258;-79
2022/05/15 11:40:57;;;;;;;3.05;2.15;;;;;;;25.85;38.38;99674.91;4819952;29;20214;-78
2022/05/15 11:43:27;;;;;;;2.75;1.90;;;;;;;25.85;37.77;99677.66;4820074;29;20630;-79
2022/05/15 11:46:03;;;;;;;3.08;1.90;;;;;;;26.05;38.75;99670.75;4819909;29;20193;-78
2022/05/15 11:48:51;;;;;;;4.68;2.00;;;;;;;26.53;38.53;99659.69;4819823;29;20196;-79
2022/05/15 11:51:27;;;;;;;5.65;2.17;;;;;;;26.95;36.63;99661.59;4820043;29;20253;-79
2022/05/15 11:54:07;;;;;;;2.72;2.05;;;;;;;27.28;35.32;99655.50;4820413;29;20684;-78
2022/05/15 11:56:41;;;;;;;4.68;1.80;;;;;;;27.40;36.39;99656.41;4803719;29;20201;-78
2022/05/15 11:59:13;;;;;;;2.10;1.90;;;;;;;27.46;36.57;99648.78;4820035;29;20221;-79
2022/05/15 12:01:44;;;;;;;3.65;1.88;;;;;;;27.37;36.93;99648.03;4819114;29;20229;-79
2022/05/15 12:04:35;;;;;;;3.38;2.10;;;;;;;27.36;35.03;99644.47;4803478;29;20206;-79
2022/05/15 12:07:02;;;;;;;5.10;1.95;;;;;;;27.34;34.90;99641.22;4819717;29;20261;-78